createdAt,value
2023-02-26T00:01:40.976Z,101982.56
2023-02-26T00:04:09.428Z,101989.38
2023-02-26T00:06:38.895Z,101988.56
2023-02-26T00:09:07.468Z,102015.34
2023-02-26T00:11:35.247Z,102001.56
2023-02-26T00:14:02.916Z,102006.75
2023-02-26T00:16:36.795Z,102003.88
2023-02-26T00:19:07.690Z,102015.97
2023-02-26T00:21:36.056Z,102007.19
2023-02-26T00:24:03.726Z,102010.50
2023-02-26T00:26:32.229Z,102007.63
2023-02-26T00:29:00.599Z,102027.31
2023-02-26T00:31:29.182Z,102021.03
2023-02-26T00:33:57.695Z,102021.66
2023-02-26T00:36:34.817Z,102024.00
2023-02-26T00:39:38.024Z,102035.97
2023-02-26T00:42:05.882Z,102037.66
2023-02-26T00:44:33.656Z,102029.69
2023-02-26T00:47:19.933Z,102034.78
2023-02-26T00:49:53.481Z,102044.09
2023-02-26T00:52:38.015Z,102043.09
2023-02-26T00:55:06.326Z,102049.19
2023-02-26T00:57:33.914Z,102045.59
2023-02-26T01:00:01.161Z,102052.50
2023-02-26T01:02:28.988Z,102050.69
2023-02-26T01:04:56.805Z,102046.22
2023-02-26T01:07:25.103Z,102054.00
2023-02-26T01:09:52.672Z,102058.31
2023-02-26T01:12:20.404Z,102059.97
2023-02-26T01:14:48.205Z,102069.47
2023-02-26T01:17:23.883Z,102063.50
2023-02-26T01:20:04.075Z,102058.09
2023-02-26T01:22:40.432Z,102070.09
2023-02-26T01:25:44.145Z,102073.41
2023-02-26T01:28:11.791Z,102082.84
2023-02-26T01:30:42.697Z,102068.88
2023-02-26T01:33:25.980Z,102081.75
2023-02-26T01:35:58.805Z,102081.75
2023-02-26T01:38:44.990Z,102082.56
2023-02-26T01:41:34.063Z,102084.28
2023-02-26T01:44:11.852Z,102083.28
2023-02-26T01:46:54.293Z,102098.84
2023-02-26T01:49:23.561Z,102094.66
2023-02-26T01:51:57.984Z,102093.66
2023-02-26T01:54:37.137Z,102101.44
2023-02-26T01:57:11.531Z,102097.16
2023-02-26T01:59:42.676Z,102101.44
2023-02-26T02:02:11.947Z,102107.53
2023-02-26T02:04:40.898Z,102110.13
2023-02-26T02:07:09.112Z,102112.81
2023-02-26T02:09:36.585Z,102117.03
2023-02-26T02:12:23.924Z,102113.59
2023-02-26T02:15:12.410Z,102102.34
2023-02-26T02:18:08.925Z,102109.31
2023-02-26T02:21:13.616Z,102115.31
2023-02-26T02:24:00.634Z,102119.59
2023-02-26T02:27:25.599Z,102124.59
2023-02-26T02:30:33.982Z,102118.59
2023-02-26T02:33:06.487Z,102123.88
2023-02-26T02:35:41.400Z,102123.97
2023-02-26T02:38:19.115Z,102135.25
2023-02-26T02:40:54.866Z,102130.88
2023-02-26T02:43:30.252Z,102135.97
2023-02-26T02:46:12.000Z,102143.53
2023-02-26T02:48:44.976Z,102136.56
2023-02-26T02:51:22.594Z,102141.75
2023-02-26T02:54:11.077Z,102141.75
2023-02-26T02:56:45.647Z,102151.13
2023-02-26T02:59:19.394Z,102149.34
2023-02-26T03:01:51.597Z,102155.41
2023-02-26T03:04:19.229Z,102160.53
2023-02-26T03:06:46.884Z,102160.41
2023-02-26T03:09:14.281Z,102161.31
2023-02-26T03:11:42.381Z,102161.31
2023-02-26T03:14:11.093Z,102158.59
2023-02-26T03:17:03.129Z,102167.31
2023-02-26T03:19:48.659Z,102164.63
2023-02-26T03:22:31.760Z,102177.59
2023-02-26T03:25:20.916Z,102179.25
2023-02-26T03:28:07.135Z,102187.97
2023-02-26T03:30:57.378Z,102191.34
2023-02-26T03:33:46.486Z,102182.56
2023-02-26T03:36:19.804Z,102189.44
2023-02-26T03:39:02.213Z,102197.41
2023-02-26T03:41:57.218Z,102204.41
2023-02-26T03:44:32.759Z,102210.50
2023-02-26T03:47:08.562Z,102210.50
2023-02-26T03:49:45.300Z,102215.78
2023-02-26T03:52:14.647Z,102223.56
2023-02-26T03:55:18.557Z,102235.75
2023-02-26T03:57:58.391Z,102255.69
2023-02-26T04:00:34.760Z,102249.50
2023-02-26T04:03:11.498Z,102247.63
2023-02-26T04:05:43.697Z,102250.88
2023-02-26T04:08:11.630Z,102259.38
2023-02-26T04:10:47.493Z,102264.44
2023-02-26T04:13:14.776Z,102262.66
2023-02-26T04:15:42.251Z,102266.84
2023-02-26T04:18:09.631Z,102261.47
2023-02-26T04:20:37.059Z,102267.34
2023-02-26T04:23:04.509Z,102275.78
2023-02-26T04:25:31.871Z,102285.06
2023-02-26T04:28:00.692Z,102274.50
2023-02-26T04:30:28.575Z,102269.22
2023-02-26T04:32:56.235Z,102276.09
2023-02-26T04:35:23.742Z,102281.28
2023-02-26T04:37:51.138Z,102278.69
2023-02-26T04:40:18.546Z,102293.44
2023-02-26T04:42:47.487Z,102289.06
2023-02-26T04:45:21.516Z,102297.72
2023-02-26T04:47:48.872Z,102302.91
2023-02-26T04:50:16.994Z,102311.59
2023-02-26T04:52:46.489Z,102314.28
2023-02-26T04:55:15.211Z,102308.31
2023-02-26T04:57:42.587Z,102315.06
2023-02-26T05:00:11.557Z,102317.78
2023-02-26T05:02:40.484Z,102328.25
2023-02-26T05:05:08.162Z,102330.84
2023-02-26T05:07:35.977Z,102330.84
2023-02-26T05:10:05.524Z,102342.91
2023-02-26T05:12:33.638Z,102342.03
2023-02-26T05:15:01.335Z,102348.00
2023-02-26T05:17:30.067Z,102356.56
2023-02-26T05:19:57.681Z,102355.47
2023-02-26T05:22:24.934Z,102351.19
2023-02-26T05:24:52.545Z,102360.66
2023-02-26T05:27:19.853Z,102357.13
2023-02-26T05:29:48.412Z,102358.63
2023-02-26T05:32:15.877Z,102364.63
2023-02-26T05:34:44.059Z,102361.78
2023-02-26T05:37:11.375Z,102367.78
2023-02-26T05:39:41.501Z,102376.47
2023-02-26T05:42:09.444Z,102370.47
2023-02-26T05:44:36.832Z,102378.25
2023-02-26T05:47:04.510Z,102369.56
2023-02-26T05:49:31.834Z,102373.06
2023-02-26T05:51:59.534Z,102382.75
2023-02-26T05:54:26.814Z,102383.66
2023-02-26T05:56:54.297Z,102371.38
2023-02-26T05:59:21.975Z,102389.53
2023-02-26T06:01:49.920Z,102387.59
2023-02-26T06:04:17.489Z,102403.97
2023-02-26T06:06:44.844Z,102400.50
2023-02-26T06:09:12.313Z,102401.38
2023-02-26T06:11:40.583Z,102406.56
2023-02-26T06:14:07.950Z,102410.94
2023-02-26T06:16:36.161Z,102412.97
2023-02-26T06:19:03.497Z,102416.78
2023-02-26T06:21:30.886Z,102434.34
2023-02-26T06:23:58.452Z,102434.56
2023-02-26T06:26:30.497Z,102436.47
2023-02-26T06:28:57.809Z,102437.50
2023-02-26T06:31:26.850Z,102446.28
2023-02-26T06:33:54.666Z,102443.78
2023-02-26T06:36:22.239Z,102443.78
2023-02-26T06:38:49.659Z,102445.59
2023-02-26T06:41:16.863Z,102446.38
2023-02-26T06:43:44.094Z,102446.59
2023-02-26T06:46:11.973Z,102451.00
2023-02-26T06:48:42.215Z,102454.59
2023-02-26T06:51:09.848Z,102460.69
2023-02-26T06:53:37.239Z,102455.50
2023-02-26T06:56:05.517Z,102463.38
2023-02-26T06:58:33.039Z,102454.81
2023-02-26T07:01:00.792Z,102462.69
2023-02-26T07:03:28.494Z,102467.78
2023-02-26T07:05:56.317Z,102460.00
2023-02-26T07:08:24.143Z,102472.19
2023-02-26T07:10:51.769Z,102479.06
2023-02-26T07:13:19.130Z,102483.44
2023-02-26T07:15:46.701Z,102487.16
2023-02-26T07:18:14.059Z,102488.38
2023-02-26T07:20:42.604Z,102490.72
2023-02-26T07:23:10.000Z,102487.97
2023-02-26T07:25:37.592Z,102481.72
2023-02-26T07:28:05.451Z,102484.94
2023-02-26T07:30:32.791Z,102486.25
2023-02-26T07:33:00.522Z,102499.69
2023-02-26T07:35:28.235Z,102501.69
2023-02-26T07:37:55.542Z,102501.88
2023-02-26T07:40:22.841Z,102498.72
2023-02-26T07:42:53.659Z,102499.78
2023-02-26T07:45:22.613Z,102501.81
2023-02-26T07:47:51.594Z,102506.53
2023-02-26T07:50:20.296Z,102511.22
2023-02-26T07:52:48.122Z,102511.75
2023-02-26T07:55:15.973Z,102521.81
2023-02-26T07:57:43.299Z,102526.75
2023-02-26T08:00:13.843Z,102529.97
2023-02-26T08:02:41.465Z,102528.75
2023-02-26T08:05:09.062Z,102524.94
2023-02-26T08:07:37.600Z,102534.28
2023-02-26T08:10:05.531Z,102533.78
2023-02-26T08:12:34.290Z,102536.66
2023-02-26T08:15:01.703Z,102537.97
2023-02-26T08:17:30.089Z,102549.66
2023-02-26T08:20:00.503Z,102546.66
2023-02-26T08:22:27.851Z,102562.75
2023-02-26T08:24:55.836Z,102550.22
2023-02-26T08:27:23.141Z,102561.09
2023-02-26T08:29:51.334Z,102555.50
2023-02-26T08:32:20.570Z,102562.38
2023-02-26T08:34:51.755Z,102573.75
2023-02-26T08:37:22.189Z,102566.06
2023-02-26T08:39:49.889Z,102571.59
2023-02-26T08:42:17.472Z,102582.66
2023-02-26T08:44:45.509Z,102578.31
2023-02-26T08:47:15.111Z,102584.38
2023-02-26T08:49:44.393Z,102591.44
2023-02-26T08:52:11.866Z,102589.44
2023-02-26T08:54:39.395Z,102596.09
2023-02-26T08:57:06.819Z,102595.19
2023-02-26T08:59:34.633Z,102593.47
2023-02-26T09:02:02.477Z,102604.69
2023-02-26T09:04:31.169Z,102593.88
2023-02-26T09:06:58.747Z,102602.69
2023-02-26T09:09:26.057Z,102603.53
2023-02-26T09:11:53.360Z,102611.50
2023-02-26T09:14:20.981Z,102609.88
2023-02-26T09:16:51.007Z,102606.06
2023-02-26T09:19:18.492Z,102611.19
2023-02-26T09:21:45.791Z,102620.28
2023-02-26T09:24:13.257Z,102627.94
2023-02-26T09:26:40.482Z,102612.38
2023-02-26T09:29:07.763Z,102618.34
2023-02-26T09:31:35.233Z,102627.59
2023-02-26T09:34:02.929Z,102632.50
2023-02-26T09:36:31.421Z,102635.97
2023-02-26T09:38:58.750Z,102661.28
2023-02-26T09:41:41.456Z,102638.41
2023-02-26T09:44:24.498Z,102650.44
2023-02-26T09:47:28.879Z,102653.00
2023-02-26T09:50:24.928Z,102659.09
2023-02-26T09:53:29.814Z,102653.91
2023-02-26T09:56:20.078Z,102647.97
2023-02-26T09:58:47.894Z,102653.44
2023-02-26T10:01:33.950Z,102666.25
2023-02-26T10:04:20.932Z,102662.72
2023-02-26T10:07:03.205Z,102698.06
2023-02-26T10:10:09.491Z,102671.72
2023-02-26T10:12:40.559Z,102683.34
2023-02-26T10:15:15.243Z,102679.00
2023-02-26T10:17:54.760Z,102673.97
2023-02-26T10:20:30.947Z,102680.78
2023-02-26T10:23:23.802Z,102682.50
2023-02-26T10:26:04.713Z,102678.44
2023-02-26T10:28:31.937Z,102678.78
2023-02-26T10:31:21.494Z,102685.94
2023-02-26T10:33:55.025Z,102694.31
2023-02-26T10:36:29.288Z,102681.16
2023-02-26T10:39:35.408Z,102693.22
2023-02-26T10:42:12.355Z,102693.09
2023-02-26T10:45:14.914Z,102691.34
2023-02-26T10:47:56.670Z,102693.41
2023-02-26T10:50:24.503Z,102699.31
2023-02-26T10:52:52.802Z,102695.44
2023-02-26T10:55:45.034Z,102701.13
2023-02-26T10:58:17.187Z,102695.47
2023-02-26T11:00:50.671Z,102704.41
2023-02-26T11:03:31.006Z,102712.47
2023-02-26T11:05:58.882Z,102710.31
2023-02-26T11:08:28.827Z,102702.28
2023-02-26T11:10:59.346Z,102709.97
2023-02-26T11:13:30.642Z,102715.34
2023-02-26T11:16:03.038Z,102717.31
2023-02-26T11:18:42.739Z,102717.06
2023-02-26T11:21:19.034Z,102723.59
2023-02-26T11:23:48.407Z,102725.75
2023-02-26T11:26:20.151Z,102727.63
2023-02-26T11:28:51.061Z,102730.50
2023-02-26T11:31:21.433Z,102733.47
2023-02-26T11:33:53.649Z,102730.84
2023-02-26T11:36:23.017Z,102733.38
2023-02-26T11:39:16.418Z,102738.69
2023-02-26T11:41:47.091Z,102730.94
2023-02-26T11:44:18.449Z,102731.19
2023-02-26T11:46:51.327Z,102742.81
2023-02-26T11:49:22.855Z,102738.47
2023-02-26T11:52:11.314Z,102743.78
2023-02-26T11:54:39.799Z,102739.44
2023-02-26T11:57:16.540Z,102738.47
2023-02-26T11:59:51.725Z,102735.75
2023-02-26T12:02:24.220Z,102741.91
2023-02-26T12:04:53.956Z,102737.09
2023-02-26T12:07:22.643Z,102729.25
2023-02-26T12:09:50.794Z,102731.03
2023-02-26T12:12:46.568Z,102731.38
2023-02-26T12:15:29.390Z,102730.75
2023-02-26T12:18:24.962Z,102728.97
2023-02-26T12:21:15.778Z,102733.38
2023-02-26T12:24:01.256Z,102722.28
2023-02-26T12:26:46.103Z,102730.28
2023-02-26T12:29:22.008Z,102730.19
2023-02-26T12:32:11.799Z,102728.56
2023-02-26T12:34:57.905Z,102736.50
2023-02-26T12:37:50.007Z,102731.19
2023-02-26T12:40:51.638Z,102746.22
2023-02-26T12:43:49.729Z,102733.31
2023-02-26T12:46:32.288Z,102738.75
2023-02-26T12:49:28.528Z,102729.25
2023-02-26T12:52:16.525Z,102740.50
2023-02-26T12:55:14.416Z,102738.81
2023-02-26T12:57:47.797Z,102729.25
2023-02-26T13:00:21.303Z,102738.88
2023-02-26T13:03:10.421Z,102738.97
2023-02-26T13:05:50.002Z,102750.97
2023-02-26T13:08:46.960Z,102749.47
2023-02-26T13:11:37.415Z,102751.53
2023-02-26T13:14:13.021Z,102740.44
2023-02-26T13:16:55.097Z,102744.25
2023-02-26T13:19:43.318Z,102751.09
2023-02-26T13:22:35.218Z,102741.63
2023-02-26T13:25:06.389Z,102748.81
2023-02-26T13:27:39.786Z,102745.88
2023-02-26T13:30:19.495Z,102748.25
2023-02-26T13:32:50.004Z,102745.44
2023-02-26T13:35:20.813Z,102746.00
2023-02-26T13:37:53.565Z,102740.59
2023-02-26T13:41:00.985Z,102748.38
2023-02-26T13:43:55.923Z,102750.06
2023-02-26T13:46:29.497Z,102760.88
2023-02-26T13:49:23.616Z,102745.34
2023-02-26T13:51:54.618Z,102750.22
2023-02-26T13:54:22.026Z,102752.72
2023-02-26T13:57:06.669Z,102744.38
2023-02-26T13:59:57.202Z,102746.47
2023-02-26T14:02:45.082Z,102748.28
2023-02-26T14:05:31.767Z,102746.47
2023-02-26T14:07:59.008Z,102744.34
2023-02-26T14:10:33.067Z,102748.31
2023-02-26T14:13:30.875Z,102746.44
2023-02-26T14:16:10.929Z,102758.66
2023-02-26T14:18:47.319Z,102754.41
2023-02-26T14:21:27.172Z,102755.88
2023-02-26T14:24:01.262Z,102766.78
2023-02-26T14:26:35.980Z,102749.94
2023-02-26T14:29:06.055Z,102749.06
2023-02-26T14:32:06.681Z,102740.38
2023-02-26T14:34:58.477Z,102745.69
2023-02-26T14:37:28.786Z,102748.13
2023-02-26T14:40:09.073Z,102735.56
2023-02-26T14:42:46.018Z,102762.28
2023-02-26T14:45:16.310Z,102747.44
2023-02-26T14:47:45.955Z,102747.97
2023-02-26T14:50:19.834Z,102756.69
2023-02-26T14:53:24.124Z,102751.22
2023-02-26T14:56:06.605Z,102747.72
2023-02-26T14:59:09.832Z,102757.13
2023-02-26T15:02:02.096Z,102764.50
2023-02-26T15:05:04.680Z,102762.63
2023-02-26T15:07:58.317Z,102764.44
2023-02-26T15:10:33.961Z,102769.38
2023-02-26T15:13:50.051Z,102768.19
2023-02-26T15:16:35.894Z,102757.38
2023-02-26T15:19:22.064Z,102753.00
2023-02-26T15:22:27.675Z,102746.84
2023-02-26T15:24:55.163Z,102752.16
2023-02-26T15:27:22.598Z,102752.06
2023-02-26T15:29:52.964Z,102752.91
2023-02-26T15:32:31.455Z,102752.69
2023-02-26T15:35:07.423Z,102761.94
2023-02-26T15:37:35.545Z,102757.25
2023-02-26T15:40:06.952Z,102758.19
2023-02-26T15:42:40.200Z,102746.81
2023-02-26T15:45:20.428Z,102753.66
2023-02-26T15:47:55.427Z,102763.00
2023-02-26T15:50:28.741Z,102760.91
2023-02-26T15:53:00.335Z,102768.06
2023-02-26T15:55:35.408Z,102770.75
2023-02-26T15:58:06.217Z,102769.13
2023-02-26T16:00:36.658Z,102765.72
2023-02-26T16:03:04.954Z,102767.31
2023-02-26T16:05:32.392Z,102778.47
2023-02-26T16:07:59.921Z,102768.56
2023-02-26T16:10:35.666Z,102780.53
2023-02-26T16:13:03.784Z,102785.47
2023-02-26T16:15:35.080Z,102786.06
2023-02-26T16:18:06.710Z,102800.53
2023-02-26T16:20:40.089Z,102788.19
2023-02-26T16:23:13.405Z,102794.22
2023-02-26T16:25:51.120Z,102788.06
2023-02-26T16:28:24.372Z,102796.81
2023-02-26T16:30:55.585Z,102792.41
2023-02-26T16:33:25.703Z,102792.22
2023-02-26T16:36:03.242Z,102789.50
2023-02-26T16:38:46.062Z,102800.63
2023-02-26T16:41:14.415Z,102796.03
2023-02-26T16:43:44.656Z,102802.06
2023-02-26T16:46:17.363Z,102804.56
2023-02-26T16:48:54.149Z,102809.69
2023-02-26T16:51:28.796Z,102818.22
2023-02-26T16:54:00.296Z,102808.47
2023-02-26T16:56:39.014Z,102815.28
2023-02-26T16:59:14.858Z,102813.50
2023-02-26T17:01:59.394Z,102815.13
2023-02-26T17:04:30.072Z,102820.34
2023-02-26T17:06:58.221Z,102818.63
2023-02-26T17:09:37.919Z,102821.13
2023-02-26T17:12:22.086Z,102821.00
2023-02-26T17:14:56.716Z,102831.44
2023-02-26T17:17:25.752Z,102833.16
2023-02-26T17:19:53.625Z,102834.16
2023-02-26T17:22:27.695Z,102838.56
2023-02-26T17:24:55.426Z,102841.19
2023-02-26T17:27:32.527Z,102834.34
2023-02-26T17:30:02.738Z,102840.56
2023-02-26T17:32:31.899Z,102838.75
2023-02-26T17:34:59.735Z,102837.97
2023-02-26T17:37:31.387Z,102832.66
2023-02-26T17:39:59.853Z,102833.44
2023-02-26T17:42:27.580Z,102838.66
2023-02-26T17:44:56.734Z,102835.16
2023-02-26T17:47:26.361Z,102837.84
2023-02-26T17:49:54.146Z,102843.97
2023-02-26T17:52:21.424Z,102837.97
2023-02-26T17:54:48.791Z,102838.75
2023-02-26T17:57:21.575Z,102838.75
2023-02-26T17:59:50.347Z,102847.50
2023-02-26T18:02:25.617Z,102840.56
2023-02-26T18:04:54.335Z,102839.56
2023-02-26T18:07:23.275Z,102844.78
2023-02-26T18:09:51.726Z,102848.19
2023-02-26T18:12:22.100Z,102847.19
2023-02-26T18:14:49.982Z,102853.00
2023-02-26T18:17:27.850Z,102853.50
2023-02-26T18:19:55.228Z,102847.06
2023-02-26T18:22:27.687Z,102841.56
2023-02-26T18:24:55.445Z,102850.00
2023-02-26T18:27:24.925Z,102844.47
2023-02-26T18:29:53.414Z,102843.25
2023-02-26T18:32:23.236Z,102837.75
2023-02-26T18:34:51.990Z,102847.97
2023-02-26T18:37:22.511Z,102843.34
2023-02-26T18:39:51.940Z,102843.94
2023-02-26T18:42:23.197Z,102847.25
2023-02-26T18:44:51.367Z,102848.88
2023-02-26T18:47:19.709Z,102856.56
2023-02-26T18:49:51.621Z,102858.06
2023-02-26T18:52:18.930Z,102853.63
2023-02-26T18:54:46.174Z,102862.94
2023-02-26T18:57:13.372Z,102849.84
2023-02-26T18:59:41.252Z,102853.13
2023-02-26T19:02:13.797Z,102858.22
2023-02-26T19:04:41.964Z,102852.72
2023-02-26T19:07:10.271Z,102869.94
2023-02-26T19:09:37.580Z,102865.44
2023-02-26T19:12:05.802Z,102863.50
2023-02-26T19:14:35.697Z,102867.69
2023-02-26T19:17:03.301Z,102872.78
2023-02-26T19:19:31.063Z,102866.59
2023-02-26T19:21:58.691Z,102862.88
2023-02-26T19:24:25.920Z,102867.28
2023-02-26T19:26:53.309Z,102860.25
2023-02-26T19:29:20.601Z,102870.56
2023-02-26T19:31:48.091Z,102867.66
2023-02-26T19:34:15.638Z,102871.03
2023-02-26T19:36:48.127Z,102872.63
2023-02-26T19:39:18.460Z,102875.03
2023-02-26T19:41:49.364Z,102882.63
2023-02-26T19:44:17.552Z,102886.03
2023-02-26T19:46:44.888Z,102878.13
2023-02-26T19:49:12.677Z,102884.91
2023-02-26T19:51:42.166Z,102886.50
2023-02-26T19:54:09.737Z,102893.19
2023-02-26T19:56:37.070Z,102893.06
2023-02-26T19:59:04.343Z,102892.84
2023-02-26T20:01:32.051Z,102897.94
2023-02-26T20:04:00.937Z,102897.84
2023-02-26T20:06:31.609Z,102897.63
2023-02-26T20:08:58.857Z,102898.31
2023-02-26T20:11:26.387Z,102897.97
2023-02-26T20:13:53.803Z,102896.84
2023-02-26T20:16:21.284Z,102901.84
2023-02-26T20:18:51.754Z,102902.53
2023-02-26T20:21:19.156Z,102907.72
2023-02-26T20:23:46.368Z,102907.53
2023-02-26T20:26:15.213Z,102913.50
2023-02-26T20:28:43.149Z,102901.97
2023-02-26T20:31:11.739Z,102905.97
2023-02-26T20:33:39.849Z,102915.31
2023-02-26T20:36:09.032Z,102918.59
2023-02-26T20:38:37.051Z,102929.69
2023-02-26T20:41:04.900Z,102927.75
2023-02-26T20:43:33.509Z,102928.44
2023-02-26T20:46:02.015Z,102931.63
2023-02-26T20:48:29.267Z,102932.19
2023-02-26T20:51:06.230Z,102937.03
2023-02-26T20:53:34.435Z,102928.91
2023-02-26T20:56:01.759Z,102932.97
2023-02-26T20:58:29.219Z,102934.19
2023-02-26T21:00:58.351Z,102924.38
2023-02-26T21:03:26.558Z,102930.25
2023-02-26T21:05:54.132Z,102938.50
2023-02-26T21:08:22.102Z,102941.66
2023-02-26T21:10:52.981Z,102931.72
2023-02-26T21:13:20.911Z,102942.69
2023-02-26T21:15:51.157Z,102945.81
2023-02-26T21:18:18.535Z,102949.09
2023-02-26T21:20:45.856Z,102949.66
2023-02-26T21:23:13.424Z,102946.03
2023-02-26T21:25:40.886Z,102938.81
2023-02-26T21:28:08.175Z,102950.84
2023-02-26T21:30:35.841Z,102946.34
2023-02-26T21:33:03.547Z,102947.78
2023-02-26T21:35:31.059Z,102957.03
2023-02-26T21:37:58.412Z,102954.19
2023-02-26T21:40:26.569Z,102956.56
2023-02-26T21:42:53.782Z,102946.06
2023-02-26T21:45:21.131Z,102958.16
2023-02-26T21:47:48.341Z,102954.53
2023-02-26T21:50:15.745Z,102954.41
2023-02-26T21:52:43.006Z,102951.56
2023-02-26T21:55:11.665Z,102954.72
2023-02-26T21:57:39.427Z,102958.75
2023-02-26T22:00:10.371Z,102957.50
2023-02-26T22:02:42.091Z,102962.34
2023-02-26T22:05:11.699Z,102962.75
2023-02-26T22:07:42.015Z,102951.91
2023-02-26T22:10:10.145Z,102962.03
2023-02-26T22:12:37.848Z,102971.25
2023-02-26T22:15:07.154Z,102964.81
2023-02-26T22:17:36.834Z,102968.97
2023-02-26T22:20:09.824Z,102974.69
2023-02-26T22:22:38.181Z,102976.94
2023-02-26T22:25:07.811Z,102980.06
2023-02-26T22:27:35.371Z,102975.41
2023-02-26T22:30:02.616Z,102977.75
2023-02-26T22:32:29.985Z,102975.72
2023-02-26T22:34:57.686Z,102977.28
2023-02-26T22:37:25.024Z,102976.13
2023-02-26T22:39:52.386Z,102972.25
2023-02-26T22:42:19.734Z,102980.56
2023-02-26T22:44:47.304Z,102975.25
2023-02-26T22:47:14.737Z,102983.56
2023-02-26T22:49:41.979Z,102981.50
2023-02-26T22:52:10.632Z,102976.19
2023-02-26T22:54:39.037Z,102980.34
2023-02-26T22:57:07.710Z,102985.53
2023-02-26T22:59:35.259Z,102988.66
2023-02-26T23:02:02.676Z,103001.63
2023-02-26T23:04:30.350Z,102998.09
2023-02-26T23:06:57.840Z,102998.88
2023-02-26T23:09:25.256Z,102997.84
2023-02-26T23:11:52.610Z,103000.53
2023-02-26T23:14:20.325Z,102999.91
2023-02-26T23:16:47.558Z,103002.63
2023-02-26T23:19:14.829Z,102997.56
2023-02-26T23:21:42.074Z,102996.78
2023-02-26T23:24:09.607Z,102999.66
2023-02-26T23:26:37.859Z,103005.72
2023-02-26T23:29:06.539Z,102993.53
2023-02-26T23:31:34.515Z,102997.81
2023-02-26T23:34:03.091Z,102989.91
2023-02-26T23:36:30.817Z,103001.84
2023-02-26T23:38:58.173Z,103004.44
2023-02-26T23:41:26.111Z,103002.75
2023-02-26T23:43:53.528Z,102993.16
2023-02-26T23:46:20.784Z,103009.75
2023-02-26T23:48:48.000Z,102998.50
2023-02-26T23:51:15.510Z,102995.09
2023-02-26T23:53:42.747Z,103006.25
2023-02-26T23:56:09.959Z,102996.78
2023-02-26T23:58:37.335Z,102990.72
